This is the latest recevied weather packets stored in our database for station/object LA6LOA. If no packets are shown the sender has not sent any weather packets the latest 10 day(s).
| Time | Temp. | Humidity | Pressure | Rain* | Wind** | Luminosity | Snow |
|---|---|---|---|---|---|---|---|
| 1777737080 | 3.33° C | 100% | 1001 hPa | 0 mm | - | - | - |
| 1777736780 | 3.89° C | 100% | 1000.8 hPa | 0 mm | - | - | - |
| 1777736480 | 3.89° C | 100% | 1000.8 hPa | 0 mm | - | - | - |
| 1777736180 | 3.33° C | 100% | 1000.9 hPa | 0 mm | - | - | - |
| 1777735880 | 3.33° C | 100% | 1000.8 hPa | 0 mm | - | - | - |
| 1777735580 | 3.33° C | 100% | 1000.8 hPa | 0 mm | - | - | - |
| 1777735280 | 3.33° C | 100% | 1000.8 hPa | 0 mm | - | - | - |
| 1777734980 | 3.33° C | 100% | 1000.7 hPa | 0 mm | - | - | - |
| 1777734680 | 3.33° C | 100% | 1000.8 hPa | 0 mm | - | - | - |
| 1777734380 | 2.78° C | 100% | 1000.9 hPa | 0 mm | - | - | - |
| 1777734080 | 2.78° C | 100% | 1000.8 hPa | 0 mm | - | - | - |
| 1777733780 | 2.22° C | 100% | 1000.8 hPa | 0 mm | - | - | - |
| 1777733480 | 2.78° C | 100% | 1000.7 hPa | 0 mm | - | - | - |
| 1777733180 | 3.89° C | 100% | 1000.3 hPa | 0 mm | - | - | - |
| 1777732880 | 4.44° C | 100% | 1000.3 hPa | 0 mm | - | - | - |
| 1777732580 | 3.89° C | 100% | 1000.1 hPa | 0 mm | - | - | - |
| 1777732280 | 3.89° C | 100% | 1000 hPa | 0 mm | - | - | - |
| 1777731980 | 3.89° C | 100% | 1000.2 hPa | 0 mm | - | - | - |
| 1777731680 | 3.89° C | 100% | 1000.3 hPa | 0 mm | - | - | - |
| 1777731380 | 3.33° C | 100% | 1000.3 hPa | 0 mm | - | - | - |
| 1777731080 | 3.33° C | 100% | 1000.4 hPa | 0 mm | - | - | - |
| 1777730780 | 2.78° C | 100% | 1000.5 hPa | 0 mm | - | - | - |
| 1777730480 | 2.78° C | 100% | 1000.5 hPa | 0 mm | - | - | - |
| 1777730180 | 2.22° C | 100% | 1000.5 hPa | 0 mm | - | - | - |
| 1777729880 | 2.78° C | 100% | 1000.4 hPa | 0 mm | - | - | - |
* Rain latest hour (hover to see other rain measurements)
** Current wind speed in m/s (hover to see current wind gust speed)